Time;durP1;ratioP1;P1;durP2;ratioP2;P2;SDS_P1;SDS_P2;PMS_P1;PMS_P2;Temp;Humidity;BMP_temperature;BMP_pressure;BME280_temperature;BME280_humidity;BME280_pressure;Samples;Min_cycle;Max_cycle;Signal;HPM_P1;HPM_P2
2022/08/06 00:00:44;;;;;;;3.67;1.25;;;;;;;12.27;100.00;97312.13;4972819;28;20039;-72
2022/08/06 00:03:10;;;;;;;2.28;0.90;;;;;;;12.31;100.00;97312.47;4957812;28;20049;-72
2022/08/06 00:05:35;;;;;;;3.80;1.20;;;;;;;12.27;100.00;97317.50;4971962;28;20078;-72
2022/08/06 00:08:01;;;;;;;2.53;1.17;;;;;;;12.30;100.00;97315.41;4973074;28;20563;-72
2022/08/06 00:10:26;;;;;;;7.80;1.20;;;;;;;12.34;100.00;97324.59;4974471;28;20034;-72
2022/08/06 00:12:52;;;;;;;2.85;0.95;;;;;;;12.35;100.00;97324.34;4976072;28;20041;-72
2022/08/06 00:15:18;;;;;;;2.88;1.10;;;;;;;12.36;100.00;97330.53;4957299;28;20042;-72
2022/08/06 00:17:47;;;;;;;3.00;1.00;;;;;;;12.34;100.00;97322.72;4975241;28;20358;-72
2022/08/06 00:20:14;;;;;;;3.35;1.20;;;;;;;12.16;100.00;97328.28;4969699;28;20037;-72
2022/08/06 00:22:39;;;;;;;5.93;1.48;;;;;;;11.93;100.00;97332.63;4956268;28;20097;-72
2022/08/06 00:25:07;;;;;;;2.97;1.00;;;;;;;11.94;100.00;97318.16;4972791;28;20791;-72
2022/08/06 00:27:33;;;;;;;3.53;1.33;;;;;;;11.96;100.00;97318.72;4955959;28;20050;-72
2022/08/06 00:29:59;;;;;;;3.05;1.02;;;;;;;11.69;100.00;97331.00;4973365;28;20035;-72
2022/08/06 00:32:24;;;;;;;7.90;1.10;;;;;;;11.58;100.00;97329.13;4973438;28;20078;-72
2022/08/06 00:34:50;;;;;;;3.53;1.00;;;;;;;11.61;100.00;97331.34;4971906;28;20046;-72
2022/08/06 00:37:15;;;;;;;2.10;0.90;;;;;;;11.37;100.00;97331.34;4974956;28;20084;-72
2022/08/06 00:39:41;;;;;;;4.65;1.00;;;;;;;11.39;100.00;97331.91;4972578;28;20042;-72
2022/08/06 00:42:07;;;;;;;4.45;1.27;;;;;;;11.30;100.00;97332.50;4974151;28;20493;-72
2022/08/06 00:44:32;;;;;;;2.50;1.10;;;;;;;11.18;100.00;97331.66;4972840;28;20136;-72
2022/08/06 00:46:59;;;;;;;2.30;0.98;;;;;;;11.20;100.00;97325.00;4974415;28;20078;-72
2022/08/06 00:49:24;;;;;;;3.80;0.95;;;;;;;11.25;100.00;97332.38;4971410;28;20039;-72
2022/08/06 00:51:50;;;;;;;4.35;0.90;;;;;;;11.34;100.00;97329.09;4975614;28;20049;-72
2022/08/06 00:54:15;;;;;;;2.13;0.82;;;;;;;11.39;100.00;97325.75;4973322;28;20393;-72
2022/08/06 00:56:41;;;;;;;3.60;0.95;;;;;;;11.44;100.00;97328.56;4975490;28;20046;-72
2022/08/06 00:59:06;;;;;;;2.13;1.02;;;;;;;11.49;100.00;97320.63;4975419;28;20038;-72
2022/08/06 01:01:32;;;;;;;3.60;1.10;;;;;;;11.51;100.00;97320.38;4973344;28;20054;-72
2022/08/06 01:03:58;;;;;;;4.35;1.10;;;;;;;11.25;100.00;97324.34;4974219;28;20038;-72
2022/08/06 01:06:23;;;;;;;3.10;1.10;;;;;;;11.20;100.00;97326.88;4955623;28;20509;-72
2022/08/06 01:08:49;;;;;;;1.75;0.75;;;;;;;11.16;100.00;97334.56;4974311;28;20084;-72
2022/08/06 01:11:15;;;;;;;5.18;1.15;;;;;;;11.19;100.00;97334.09;4972937;28;20042;-72
2022/08/06 01:13:40;;;;;;;3.55;1.13;;;;;;;11.15;100.00;97336.44;4971573;28;20065;-72
2022/08/06 01:16:09;;;;;;;2.53;0.90;;;;;;;11.19;100.00;97344.00;4971170;28;20117;-72
2022/08/06 01:18:43;;;;;;;2.83;1.00;;;;;;;11.10;100.00;97330.94;4973448;28;20580;-72
2022/08/06 01:21:40;;;;;;;2.00;0.90;;;;;;;10.97;100.00;97343.72;4970403;28;20050;-72
2022/08/06 01:24:25;;;;;;;3.38;0.90;;;;;;;10.97;100.00;97347.25;4971840;28;20313;-72
2022/08/06 01:27:00;;;;;;;2.15;0.90;;;;;;;10.97;100.00;97349.06;4972754;28;20041;-72
2022/08/06 01:29:36;;;;;;;2.67;1.00;;;;;;;10.57;100.00;97350.47;4970669;28;20055;-72
2022/08/06 01:32:21;;;;;;;3.15;1.08;;;;;;;10.49;100.00;97348.09;4973374;28;20043;-72
2022/08/06 01:34:53;;;;;;;3.20;1.00;;;;;;;10.58;100.00;97356.63;4971617;28;20053;-72
2022/08/06 01:37:23;;;;;;;;;;;;;;;10.58;100.00;97351.28;4957115;28;20584;-72
2022/08/06 01:39:55;;;;;;;5.63;1.10;;;;;;;10.63;100.00;97353.28;4970594;28;20392;-72
2022/08/06 01:42:22;;;;;;;2.40;1.02;;;;;;;10.61;100.00;97350.84;4954438;28;20072;-72
2022/08/06 01:44:49;;;;;;;5.57;1.30;;;;;;;10.67;100.00;97360.66;4974625;28;20126;-72
2022/08/06 01:47:18;;;;;;;5.63;1.10;;;;;;;10.75;100.00;97362.19;4971438;28;20520;-72
2022/08/06 01:49:48;;;;;;;4.40;0.90;;;;;;;10.69;100.00;97357.72;4971550;28;20429;-72
2022/08/06 01:52:16;;;;;;;3.53;1.05;;;;;;;10.62;100.00;97373.88;4974426;28;20045;-72
2022/08/06 01:54:45;;;;;;;2.85;1.08;;;;;;;10.69;100.00;97376.47;4971274;28;20030;-72
2022/08/06 01:57:15;;;;;;;5.40;1.05;;;;;;;10.66;100.00;97380.44;4973008;28;20100;-72
2022/08/06 01:59:46;;;;;;;6.55;1.20;;;;;;;10.39;100.00;97379.13;4969647;28;20030;-72
2022/08/06 02:02:17;;;;;;;2.85;1.10;;;;;;;10.43;100.00;97388.34;4954305;28;20054;-72
2022/08/06 02:04:44;;;;;;;4.80;1.00;;;;;;;10.48;100.00;97391.13;4971383;28;20592;-72
2022/08/06 02:07:13;;;;;;;3.88;1.00;;;;;;;10.38;100.00;97391.69;4972850;28;20034;-72
2022/08/06 02:09:42;;;;;;;4.38;1.00;;;;;;;10.46;100.00;97394.06;4975169;28;20042;-72
2022/08/06 02:12:28;;;;;;;3.90;1.00;;;;;;;10.49;100.00;97393.59;4975602;28;20412;-72
2022/08/06 02:15:11;;;;;;;5.93;1.20;;;;;;;10.55;100.00;97392.69;4971947;28;20050;-72
2022/08/06 02:17:45;;;;;;;3.95;1.20;;;;;;;10.33;100.00;97403.03;4971098;28;20473;-72
2022/08/06 02:20:13;;;;;;;2.67;0.90;;;;;;;9.98;100.00;97400.13;4969843;28;20306;-72
2022/08/06 02:22:40;;;;;;;3.83;1.25;;;;;;;9.84;100.00;97408.50;4957644;28;20492;-72
2022/08/06 02:25:11;;;;;;;2.45;1.00;;;;;;;9.71;100.00;97406.75;4969265;28;20145;-72
2022/08/06 02:27:38;;;;;;;;;;;;;;;9.67;100.00;97421.59;4973147;28;20035;-72
2022/08/06 02:30:04;;;;;;;5.20;1.17;;;;;;;9.71;100.00;97418.25;4970087;28;19924;-72
2022/08/06 02:32:30;;;;;;;2.30;1.00;;;;;;;9.64;100.00;97416.69;4954170;28;20057;-72
2022/08/06 02:34:56;;;;;;;2.55;1.00;;;;;;;9.69;100.00;97423.00;4954510;28;20054;-72
2022/08/06 02:37:34;;;;;;;3.90;1.15;;;;;;;9.74;100.00;97417.84;4970868;28;20637;-72
2022/08/06 02:40:08;;;;;;;4.38;1.40;;;;;;;9.80;100.00;97416.13;4958640;28;20213;-72
2022/08/06 02:43:26;;;;;;;2.65;1.20;;;;;;;9.74;100.00;97423.19;4971050;28;20046;-72
2022/08/06 02:46:10;;;;;;;5.25;1.10;;;;;;;9.58;100.00;97423.75;4900369;28;20488;-72
2022/08/06 02:48:44;;;;;;;4.20;1.20;;;;;;;9.63;100.00;97428.41;4970447;28;20374;-72
2022/08/06 02:51:15;;;;;;;3.47;1.20;;;;;;;9.70;100.00;97423.81;4955096;28;20049;-72
2022/08/06 02:53:57;;;;;;;4.93;1.30;;;;;;;9.69;100.00;97417.66;4971952;28;20181;-72
2022/08/06 02:56:24;;;;;;;5.13;1.30;;;;;;;9.67;100.00;97418.94;4971782;28;20133;-72
2022/08/06 02:58:52;;;;;;;3.38;1.30;;;;;;;9.67;100.00;97418.94;4971881;28;20042;-72
2022/08/06 03:01:23;;;;;;;3.90;1.20;;;;;;;9.73;100.00;97426.91;4969862;28;20319;-72
2022/08/06 03:03:52;;;;;;;5.78;1.13;;;;;;;9.44;100.00;97430.22;4970738;28;20065;-72
2022/08/06 03:06:19;;;;;;;2.88;1.10;;;;;;;9.27;100.00;97429.94;4953594;28;20226;-72
2022/08/06 03:08:46;;;;;;;4.07;1.23;;;;;;;9.23;100.00;97427.91;4954159;28;20036;-72
2022/08/06 03:11:13;;;;;;;3.30;1.10;;;;;;;9.18;100.00;97433.88;4971864;28;20038;-72
2022/08/06 03:13:42;;;;;;;5.88;1.20;;;;;;;9.26;100.00;97432.78;4971964;28;20048;-72
2022/08/06 03:16:09;;;;;;;3.08;1.00;;;;;;;9.28;100.00;97441.44;4970821;28;20496;-72
2022/08/06 03:18:36;;;;;;;3.33;1.05;;;;;;;9.29;100.00;97448.41;4971881;28;20129;-72
2022/08/06 03:21:03;;;;;;;3.38;1.08;;;;;;;9.27;100.00;97437.13;4970485;28;20482;-72
2022/08/06 03:23:30;;;;;;;2.17;1.10;;;;;;;9.28;100.00;97452.94;4970830;28;20038;-72
2022/08/06 03:25:57;;;;;;;3.13;1.10;;;;;;;9.21;100.00;97452.97;4970503;28;20497;-72
2022/08/06 03:28:24;;;;;;;2.28;1.10;;;;;;;9.16;100.00;97435.94;4969973;28;20053;-72
2022/08/06 03:30:50;;;;;;;3.45;1.30;;;;;;;9.21;100.00;97438.81;4969362;28;20042;-72
2022/08/06 03:33:17;;;;;;;6.85;1.45;;;;;;;9.23;100.00;97441.25;4970843;28;20121;-72
2022/08/06 03:35:45;;;;;;;4.38;1.25;;;;;;;9.19;100.00;97447.03;4969160;28;20030;-72
2022/08/06 03:38:13;;;;;;;6.70;2.33;;;;;;;9.34;100.00;97453.91;4970279;28;20441;-72
2022/08/06 03:40:42;;;;;;;6.90;1.55;;;;;;;9.35;100.00;97450.22;4970557;28;20045;-72
2022/08/06 03:43:08;;;;;;;3.58;1.00;;;;;;;9.32;100.00;97453.31;4969823;28;20117;-72
2022/08/06 03:45:46;;;;;;;3.38;1.23;;;;;;;9.32;100.00;97455.97;4970591;28;20041;-72
2022/08/06 03:48:16;;;;;;;3.42;1.23;;;;;;;9.39;100.00;97454.09;4969390;28;20496;-72
2022/08/06 03:50:45;;;;;;;3.38;1.20;;;;;;;9.53;100.00;97457.47;4969892;28;20038;-72
2022/08/06 03:53:18;;;;;;;6.30;1.40;;;;;;;9.67;100.00;97470.53;4972012;28;20046;-72
2022/08/06 03:55:46;;;;;;;3.53;1.20;;;;;;;9.84;100.00;97467.31;4970506;28;20066;-72
2022/08/06 03:58:14;;;;;;;4.38;1.48;;;;;;;10.11;100.00;97460.66;4938021;28;20465;-72
2022/08/06 04:00:50;;;;;;;4.03;1.30;;;;;;;10.12;100.00;97465.00;4968608;28;20121;-72
2022/08/06 04:03:17;;;;;;;3.03;1.40;;;;;;;10.26;100.00;97465.69;4971320;28;20276;-72
2022/08/06 04:05:44;;;;;;;4.72;1.40;;;;;;;10.26;100.00;97458.47;4967721;28;20551;-72
2022/08/06 04:08:11;;;;;;;4.10;1.20;;;;;;;10.36;100.00;97467.88;4936909;28;20301;-72
2022/08/06 04:10:45;;;;;;;5.00;1.60;;;;;;;10.54;100.00;97467.84;4968529;28;20078;-72
2022/08/06 04:13:14;;;;;;;5.65;1.33;;;;;;;10.59;100.00;97476.03;4970710;28;20041;-72
2022/08/06 04:15:41;;;;;;;5.68;1.50;;;;;;;10.57;100.00;97472.75;4970459;28;20038;-72
2022/08/06 04:18:10;;;;;;;4.95;1.67;;;;;;;10.65;100.00;97468.97;4953679;28;20046;-72
2022/08/06 04:20:38;;;;;;;4.20;1.45;;;;;;;10.84;100.00;97467.91;4968255;28;20034;-72
2022/08/06 04:23:03;;;;;;;2.58;1.30;;;;;;;10.94;100.00;97478.09;4972278;28;20512;-72
2022/08/06 04:25:36;;;;;;;6.18;1.15;;;;;;;10.94;100.00;97478.91;4948598;28;20046;-72
2022/08/06 04:28:03;;;;;;;4.97;1.92;;;;;;;11.02;100.00;97475.91;4954391;28;20085;-72
2022/08/06 04:30:31;;;;;;;4.05;1.45;;;;;;;11.14;100.00;97479.47;4967293;28;20573;-72
2022/08/06 04:32:56;;;;;;;4.50;1.50;;;;;;;11.27;100.00;97483.78;4972316;28;20046;-72
2022/08/06 04:35:23;;;;;;;3.22;1.60;;;;;;;11.39;100.00;97476.63;4969279;28;20647;-72
2022/08/06 04:37:50;;;;;;;7.32;1.83;;;;;;;11.52;100.00;97482.84;4972147;28;20420;-72
2022/08/06 04:40:16;;;;;;;4.97;1.60;;;;;;;11.53;100.00;97484.47;4951673;28;20030;-72
2022/08/06 04:42:42;;;;;;;4.65;1.48;;;;;;;11.49;100.00;97485.97;4974205;28;21102;-72
2022/08/06 04:45:08;;;;;;;2.92;1.48;;;;;;;11.39;100.00;97481.16;4972526;28;20446;-72
2022/08/06 04:47:35;;;;;;;4.28;1.40;;;;;;;11.56;100.00;97481.31;4974151;28;20054;-72
2022/08/06 04:50:02;;;;;;;4.40;1.55;;;;;;;11.68;100.00;97487.53;4972905;28;20625;-72
2022/08/06 04:52:28;;;;;;;7.70;1.58;;;;;;;11.76;100.00;97484.53;4973915;28;20042;-72
2022/08/06 04:54:54;;;;;;;5.28;1.58;;;;;;;11.86;100.00;97495.53;4972729;28;20113;-72
2022/08/06 04:57:19;;;;;;;4.32;1.58;;;;;;;12.00;100.00;97490.75;4973827;28;20436;-72
2022/08/06 04:59:45;;;;;;;5.63;1.25;;;;;;;12.17;100.00;97501.63;4970906;28;20031;-72
2022/08/06 05:02:11;;;;;;;6.50;1.38;;;;;;;12.32;100.00;97495.78;4957417;28;20047;-72
2022/08/06 05:04:37;;;;;;;4.32;1.50;;;;;;;12.38;100.00;97501.03;4957606;28;20547;-72
2022/08/06 05:07:28;;;;;;;2.70;1.48;;;;;;;12.30;100.00;97498.72;4974018;28;20097;-72
2022/08/06 05:09:53;;;;;;;2.67;1.25;;;;;;;12.10;100.00;97501.72;4956459;28;20230;-72
2022/08/06 05:12:26;;;;;;;8.02;1.65;;;;;;;11.96;100.00;97503.81;4973223;28;20073;-72
2022/08/06 05:15:01;;;;;;;4.22;1.40;;;;;;;11.86;100.00;97511.63;4971194;28;20054;-72
2022/08/06 05:17:32;;;;;;;2.60;1.50;;;;;;;11.78;100.00;97511.91;4973705;28;20080;-72
2022/08/06 05:20:15;;;;;;;3.25;1.23;;;;;;;11.74;100.00;97510.72;4970788;28;20046;-72
2022/08/06 05:22:42;;;;;;;7.25;1.70;;;;;;;11.76;100.00;97524.75;4973223;28;20218;-72
2022/08/06 05:25:08;;;;;;;6.10;1.50;;;;;;;11.79;100.00;97510.88;4972787;28;20124;-72
2022/08/06 05:27:33;;;;;;;2.33;1.35;;;;;;;11.85;100.00;97518.03;4972829;28;20132;-72
2022/08/06 05:30:01;;;;;;;6.82;1.50;;;;;;;12.00;100.00;97520.28;4972290;28;20430;-72
2022/08/06 05:32:26;;;;;;;4.05;1.73;;;;;;;12.16;100.00;97521.44;4956542;28;20576;-72
2022/08/06 05:34:52;;;;;;;3.78;1.65;;;;;;;12.25;100.00;97520.88;4956427;28;20249;-73
2022/08/06 05:37:17;;;;;;;12.40;2.20;;;;;;;12.26;100.00;97529.72;4957554;28;20031;-72
2022/08/06 05:39:43;;;;;;;5.47;1.67;;;;;;;12.22;100.00;97533.94;4972056;28;20450;-72
2022/08/06 05:42:08;;;;;;;5.88;3.05;;;;;;;12.15;100.00;97534.06;4972360;28;20038;-72
2022/08/06 05:44:34;;;;;;;7.25;3.75;;;;;;;12.12;100.00;97533.69;4970521;28;20097;-72
2022/08/06 05:47:11;;;;;;;7.43;3.40;;;;;;;12.10;100.00;97533.09;4972278;28;20161;-72
2022/08/06 05:49:47;;;;;;;7.78;3.90;;;;;;;12.04;100.00;97540.19;4970837;28;20053;-72
2022/08/06 05:52:42;;;;;;;4.30;2.35;;;;;;;12.04;100.00;97542.88;4971448;28;20070;-72
2022/08/06 05:55:45;;;;;;;5.10;2.33;;;;;;;12.05;100.00;97543.69;4970199;28;20050;-72
2022/08/06 05:58:14;;;;;;;6.90;2.70;;;;;;;12.06;100.00;97545.34;4972005;28;20080;-72
2022/08/06 06:00:40;;;;;;;5.63;2.33;;;;;;;12.09;100.00;97553.75;4970718;28;20081;-72
2022/08/06 06:03:09;;;;;;;5.63;2.22;;;;;;;12.10;100.00;97547.34;4971712;28;20449;-72
2022/08/06 06:05:36;;;;;;;5.35;2.25;;;;;;;12.14;100.00;97547.66;4971115;28;20061;-72
2022/08/06 06:08:04;;;;;;;7.70;2.15;;;;;;;12.15;100.00;97557.38;4974888;28;20456;-72
2022/08/06 06:10:30;;;;;;;4.13;1.90;;;;;;;12.21;100.00;97553.75;4971189;28;20038;-72
2022/08/06 06:12:56;;;;;;;6.05;1.90;;;;;;;12.23;100.00;97551.69;4973400;28;20438;-72
2022/08/06 06:15:22;;;;;;;5.15;1.80;;;;;;;12.23;100.00;97557.84;4970170;28;20070;-72
2022/08/06 06:18:06;;;;;;;3.78;1.95;;;;;;;12.29;100.00;97556.09;4973226;28;20038;-72
2022/08/06 06:20:50;;;;;;;4.68;1.90;;;;;;;12.30;100.00;97557.75;4971997;28;20391;-72
2022/08/06 06:23:30;;;;;;;8.15;1.70;;;;;;;12.35;100.00;97562.41;4971986;28;20248;-72
2022/08/06 06:26:03;;;;;;;3.97;1.80;;;;;;;12.38;100.00;97560.09;4971827;28;20499;-72
2022/08/06 06:28:47;;;;;;;4.65;1.60;;;;;;;12.43;100.00;97562.06;4972349;28;20449;-72
2022/08/06 06:31:33;;;;;;;4.55;1.40;;;;;;;12.50;100.00;97563.56;4971862;28;21105;-72
2022/08/06 06:34:01;;;;;;;6.15;1.83;;;;;;;12.55;100.00;97566.38;4957116;28;20053;-73
2022/08/06 06:36:37;;;;;;;4.82;1.50;;;;;;;12.61;100.00;97558.44;4956074;28;20065;-72
2022/08/06 06:39:24;;;;;;;4.72;1.50;;;;;;;12.67;100.00;97563.66;4970696;28;20035;-72
2022/08/06 06:41:56;;;;;;;6.60;1.52;;;;;;;12.76;100.00;97561.44;4974379;28;20580;-71
2022/08/06 06:44:42;;;;;;;4.60;1.58;;;;;;;12.80;100.00;97557.25;4970539;28;20316;-72
2022/08/06 06:47:29;;;;;;;3.93;1.50;;;;;;;12.87;100.00;97563.31;4971962;28;20159;-72
2022/08/06 06:49:59;;;;;;;4.22;1.50;;;;;;;12.94;100.00;97564.00;4971134;28;20592;-72
2022/08/06 06:52:31;;;;;;;7.43;1.58;;;;;;;12.98;100.00;97572.41;4957187;28;20646;-72
2022/08/06 06:55:06;;;;;;;7.60;2.03;;;;;;;13.06;100.00;97572.03;4973794;28;20053;-73
2022/08/06 06:57:36;;;;;;;4.03;1.40;;;;;;;13.03;100.00;97570.63;4973568;28;20747;-72
2022/08/06 07:00:05;;;;;;;5.03;1.38;;;;;;;13.15;100.00;97567.09;4970786;28;20047;-73
2022/08/06 07:02:35;;;;;;;10.15;1.23;;;;;;;13.21;100.00;97569.69;4973368;28;20415;-72
2022/08/06 07:05:04;;;;;;;4.40;1.10;;;;;;;13.21;100.00;97574.25;4973573;28;20073;-72
2022/08/06 07:07:32;;;;;;;8.88;1.23;;;;;;;13.22;100.00;97573.19;4973104;28;20482;-72
2022/08/06 07:10:00;;;;;;;4.75;1.05;;;;;;;13.26;100.00;97564.41;4974234;28;20145;-73
2022/08/06 07:12:30;;;;;;;4.47;1.02;;;;;;;13.20;100.00;97569.94;4971481;28;20504;-72
2022/08/06 07:14:58;;;;;;;6.85;1.00;;;;;;;13.27;100.00;97573.31;4971974;28;20054;-72
2022/08/06 07:17:25;;;;;;;11.05;1.10;;;;;;;13.29;100.00;97576.56;4971889;28;20073;-71
2022/08/06 07:19:54;;;;;;;2.47;0.85;;;;;;;13.42;100.00;97584.34;4971539;28;20069;-72
2022/08/06 07:22:22;;;;;;;3.38;1.10;;;;;;;13.54;100.00;97584.28;4956351;28;20128;-72
2022/08/06 07:24:53;;;;;;;5.82;1.20;;;;;;;13.64;100.00;97574.56;4957432;28;20617;-72
2022/08/06 07:27:20;;;;;;;4.43;0.85;;;;;;;13.70;100.00;97580.88;4973285;28;20682;-72
2022/08/06 07:29:46;;;;;;;3.30;1.00;;;;;;;13.76;100.00;97579.88;4971164;28;20073;-72
2022/08/06 07:32:13;;;;;;;5.28;0.80;;;;;;;13.75;100.00;97586.31;4970537;28;20359;-72
2022/08/06 07:34:40;;;;;;;3.67;0.90;;;;;;;13.84;100.00;97587.56;4953912;28;20474;-71
2022/08/06 07:37:06;;;;;;;6.38;1.77;;;;;;;13.96;100.00;97581.31;4955606;28;20041;-71
2022/08/06 07:39:35;;;;;;;2.90;0.90;;;;;;;13.95;100.00;97585.88;4969653;28;20073;-72
2022/08/06 07:42:07;;;;;;;7.20;1.20;;;;;;;14.00;100.00;97583.25;4972808;28;20122;-71
2022/08/06 07:44:37;;;;;;;3.15;0.90;;;;;;;13.95;100.00;97585.88;4954545;28;20344;-71
2022/08/06 07:47:04;;;;;;;2.35;0.80;;;;;;;14.04;100.00;97594.38;4972525;28;20141;-71
2022/08/06 07:49:36;;;;;;;3.58;0.80;;;;;;;14.07;100.00;97600.06;4948947;28;20425;-71
2022/08/06 07:52:04;;;;;;;3.53;0.90;;;;;;;14.28;100.00;97589.66;4971429;28;20054;-72
2022/08/06 07:54:30;;;;;;;3.45;0.80;;;;;;;14.23;100.00;97590.38;4953786;28;20042;-71
2022/08/06 07:56:57;;;;;;;1.95;0.70;;;;;;;14.31;100.00;97589.16;4971549;28;20277;-71
2022/08/06 07:59:23;;;;;;;5.38;1.33;;;;;;;14.37;100.00;97594.38;4967451;28;20045;-72
2022/08/06 08:01:48;;;;;;;4.15;0.85;;;;;;;14.58;100.00;97592.84;4970058;28;20042;-71
2022/08/06 08:07:02;;;;;;;2.83;0.75;;;;;;;14.74;100.00;97589.31;4969043;28;20058;-71
2022/08/06 08:09:28;;;;;;;5.00;0.98;;;;;;;14.88;100.00;97588.97;4968476;28;20053;-71
2022/08/06 08:11:55;;;;;;;4.80;0.88;;;;;;;15.07;100.00;97589.50;4971080;28;20469;-71
2022/08/06 08:14:22;;;;;;;3.20;0.82;;;;;;;15.21;100.00;97594.28;4971610;28;20590;-72
2022/08/06 08:16:48;;;;;;;4.15;0.90;;;;;;;15.17;100.00;97584.22;4975500;28;20066;-72
2022/08/06 08:19:33;;;;;;;2.08;0.70;;;;;;;15.15;100.00;97592.56;4974418;28;20571;-72
2022/08/06 08:22:17;;;;;;;3.88;0.90;;;;;;;15.16;100.00;97591.50;4976410;28;20512;-72
2022/08/06 08:24:46;;;;;;;3.60;0.73;;;;;;;15.22;98.61;97590.50;4975223;28;20646;-71
2022/08/06 08:27:12;;;;;;;1.80;0.63;;;;;;;15.31;98.82;97585.50;4975876;28;20613;-71
2022/08/06 08:29:39;;;;;;;9.30;1.25;;;;;;;15.46;99.69;97590.25;4974890;28;20046;-72
2022/08/06 08:32:06;;;;;;;3.72;0.93;;;;;;;15.31;100.00;97577.41;4975524;28;20038;-72
2022/08/06 08:34:31;;;;;;;6.72;1.08;;;;;;;15.21;99.80;97588.88;4973078;28;20045;-72
2022/08/06 08:36:58;;;;;;;2.65;0.70;;;;;;;15.33;96.50;97592.28;4957315;28;20389;-72
2022/08/06 08:39:23;;;;;;;23.77;1.52;;;;;;;15.51;98.37;97584.94;4973505;28;20690;-72
2022/08/06 08:41:55;;;;;;;2.55;0.70;;;;;;;15.56;95.44;97584.97;4977164;28;20031;-72
2022/08/06 08:44:27;;;;;;;18.15;1.17;;;;;;;15.48;98.45;97588.09;4975082;28;20569;-72
2022/08/06 08:46:59;;;;;;;6.35;0.80;;;;;;;15.49;95.89;97595.16;4975265;28;20065;-72
2022/08/06 08:49:39;;;;;;;5.95;0.80;;;;;;;15.57;93.80;97587.44;4974070;28;20049;-72
2022/08/06 08:52:12;;;;;;;3.95;0.88;;;;;;;15.82;94.95;97586.91;4975452;28;20142;-72
2022/08/06 08:54:43;;;;;;;5.10;1.00;;;;;;;16.05;91.73;97582.28;4972966;28;20082;-72
2022/08/06 08:57:09;;;;;;;8.85;0.90;;;;;;;16.24;88.95;97585.41;4976688;28;20054;-72
2022/08/06 08:59:40;;;;;;;5.60;0.70;;;;;;;16.36;90.61;97575.25;4973392;28;20070;-72
2022/08/06 09:02:09;;;;;;;2.22;0.70;;;;;;;16.32;88.86;97574.13;4975546;28;20046;-72
2022/08/06 09:04:35;;;;;;;2.10;0.52;;;;;;;16.25;91.16;97582.44;4973973;28;20038;-72
2022/08/06 09:07:02;;;;;;;1.75;0.80;;;;;;;16.34;90.72;97588.16;4975376;28;20506;-72
2022/08/06 09:09:28;;;;;;;4.93;1.00;;;;;;;16.36;88.68;97580.66;4974120;28;20225;-72
2022/08/06 09:11:57;;;;;;;2.53;0.80;;;;;;;16.44;87.16;97575.59;4975590;28;20474;-72
2022/08/06 09:14:23;;;;;;;7.45;1.00;;;;;;;16.51;89.37;97588.06;4972453;28;20038;-72
2022/08/06 09:16:49;;;;;;;4.95;0.80;;;;;;;16.60;88.90;97586.50;4975104;28;20374;-72
2022/08/06 09:19:15;;;;;;;19.92;1.55;;;;;;;16.73;90.71;97588.78;4954662;28;20251;-72
2022/08/06 09:21:41;;;;;;;4.03;1.00;;;;;;;16.73;88.76;97591.50;4974982;28;20045;-72
2022/08/06 09:24:10;;;;;;;4.47;0.90;;;;;;;16.66;87.90;97582.75;4975330;28;20058;-72
2022/08/06 09:26:35;;;;;;;3.17;0.80;;;;;;;16.74;88.34;97587.72;4975373;28;20042;-72
2022/08/06 09:29:02;;;;;;;4.05;0.90;;;;;;;16.73;86.72;97577.97;4973481;28;20039;-72
2022/08/06 09:31:27;;;;;;;4.55;0.75;;;;;;;16.90;89.58;97584.03;4974415;28;20556;-72
2022/08/06 09:34:01;;;;;;;4.85;0.88;;;;;;;17.12;90.62;97583.03;4972202;28;20070;-72
2022/08/06 09:36:27;;;;;;;3.13;0.90;;;;;;;17.40;90.23;97588.03;4972105;28;20038;-72
2022/08/06 09:38:56;;;;;;;3.53;0.90;;;;;;;17.51;84.00;97587.03;4974304;28;20246;-72
2022/08/06 09:41:24;;;;;;;3.00;0.85;;;;;;;17.50;86.86;97581.84;4973776;28;20037;-72
2022/08/06 09:43:52;;;;;;;2.00;0.80;;;;;;;17.38;84.49;97592.91;4971313;28;20436;-72
2022/08/06 09:46:35;;;;;;;2.35;0.80;;;;;;;17.41;81.20;97595.06;4972057;28;20810;-72
2022/08/06 09:49:02;;;;;;;5.93;1.15;;;;;;;17.55;82.76;97579.16;4972669;28;20071;-72
2022/08/06 09:51:28;;;;;;;5.75;0.90;;;;;;;17.63;83.98;97588.66;4971619;28;20115;-72
2022/08/06 09:53:58;;;;;;;7.53;1.10;;;;;;;17.62;78.47;97578.91;4973245;28;20050;-72
2022/08/06 09:56:26;;;;;;;3.65;0.95;;;;;;;17.64;82.39;97587.56;4973592;28;20474;-72
2022/08/06 09:59:05;;;;;;;1.52;0.60;;;;;;;17.84;80.56;97590.38;4955132;28;20719;-72
2022/08/06 10:01:45;;;;;;;2.03;0.88;;;;;;;17.99;73.79;97587.69;4972508;28;20058;-72
2022/08/06 10:04:23;;;;;;;4.20;0.70;;;;;;;18.09;71.10;97581.47;4973067;28;20050;-72
2022/08/06 10:06:56;;;;;;;3.72;0.70;;;;;;;18.27;71.63;97580.13;4975435;28;20061;-72
2022/08/06 10:09:23;;;;;;;3.58;0.70;;;;;;;18.31;69.27;97581.22;4972462;28;20050;-72
2022/08/06 10:11:49;;;;;;;5.57;0.70;;;;;;;18.29;68.18;97578.78;4972982;28;20085;-72
2022/08/06 10:14:24;;;;;;;3.20;0.70;;;;;;;18.53;66.62;97581.78;4970993;28;20096;-72
2022/08/06 10:17:10;;;;;;;3.33;1.08;;;;;;;18.78;66.45;97578.25;4974823;28;20470;-72
2022/08/06 10:19:37;;;;;;;2.10;0.80;;;;;;;18.97;68.30;97583.88;4972922;28;20549;-72
2022/08/06 10:22:13;;;;;;;2.92;0.77;;;;;;;19.21;62.40;97571.31;4975544;28;20046;-72
2022/08/06 10:24:44;;;;;;;3.17;0.80;;;;;;;19.27;56.41;97582.16;4972573;28;20540;-72
2022/08/06 10:27:16;;;;;;;3.05;0.70;;;;;;;19.16;57.01;97576.78;4974021;28;20256;-72
2022/08/06 10:29:50;;;;;;;2.95;0.63;;;;;;;19.14;60.97;97570.84;4950781;28;20057;-72
2022/08/06 10:32:23;;;;;;;5.35;1.00;;;;;;;19.43;58.72;97567.44;4971843;28;20154;-72
2022/08/06 10:34:51;;;;;;;4.20;1.00;;;;;;;19.56;54.83;97575.00;4957624;28;20291;-72
2022/08/06 10:37:18;;;;;;;3.45;0.85;;;;;;;20.03;62.57;97562.78;4281947;28;10000200;-72
2022/08/06 10:39:47;;;;;;;3.63;0.98;;;;;;;20.45;57.14;97567.66;4968288;28;20181;-72
2022/08/06 10:42:13;;;;;;;3.15;0.80;;;;;;;20.33;55.01;97567.19;4971539;28;20509;-72
2022/08/06 10:44:40;;;;;;;2.70;0.70;;;;;;;20.30;56.97;97556.88;4935261;28;20048;-72
2022/08/06 10:47:06;;;;;;;5.75;0.90;;;;;;;20.57;58.16;97559.13;4966403;28;20517;-72
2022/08/06 10:49:33;;;;;;;3.83;0.70;;;;;;;20.57;58.42;97550.97;4968276;28;20046;-73
2022/08/06 10:51:59;;;;;;;5.15;1.00;;;;;;;20.65;57.21;97554.97;4952962;28;20122;-73
2022/08/06 10:54:26;;;;;;;2.65;0.70;;;;;;;20.76;54.43;97564.66;4952885;28;20452;-72
2022/08/06 10:56:54;;;;;;;2.28;0.80;;;;;;;20.18;54.96;97559.97;4969242;28;20243;-72
2022/08/06 10:59:20;;;;;;;3.50;0.80;;;;;;;21.14;52.20;97571.84;4967227;28;20038;-72
2022/08/06 11:01:57;;;;;;;2.75;0.80;;;;;;;21.45;46.45;97566.09;4956034;28;20058;-72
2022/08/06 11:04:59;;;;;;;3.45;0.90;;;;;;;21.63;44.95;97559.88;4970236;28;20510;-72
2022/08/06 11:07:49;;;;;;;4.13;1.00;;;;;;;22.15;42.78;97557.22;4972282;28;20125;-72
2022/08/06 11:10:17;;;;;;;2.85;0.88;;;;;;;22.57;41.56;97552.72;4972205;28;20049;-72
2022/08/06 11:12:52;;;;;;;4.28;0.70;;;;;;;23.83;39.52;97548.66;4973232;28;20103;-72
2022/08/06 11:15:19;;;;;;;2.65;0.70;;;;;;;24.96;37.41;97540.09;4952740;28;20046;-72
2022/08/06 11:17:49;;;;;;;4.45;0.90;;;;;;;26.62;32.32;97536.50;4970925;28;20034;-72
2022/08/06 11:20:42;;;;;;;5.72;0.90;;;;;;;29.05;29.96;97538.41;4970919;28;20287;-72
2022/08/06 11:23:11;;;;;;;3.75;0.80;;;;;;;29.04;29.06;97526.59;4971703;28;20172;-72
2022/08/06 11:25:45;;;;;;;2.30;0.90;;;;;;;30.20;28.36;97530.63;4970151;28;20062;-72
2022/08/06 11:28:15;;;;;;;3.20;2.00;;;;;;;30.47;27.32;97534.53;4972524;28;20050;-72
2022/08/06 11:30:46;;;;;;;3.60;0.98;;;;;;;31.85;24.90;97510.78;4954976;28;20185;-72
2022/08/06 11:33:20;;;;;;;3.47;0.80;;;;;;;33.04;24.25;97514.69;4973491;28;20153;-72
2022/08/06 11:35:49;;;;;;;2.70;0.90;;;;;;;33.58;22.88;97517.16;4972032;28;20034;-72
2022/08/06 11:38:46;;;;;;;2.42;0.70;;;;;;;35.22;20.69;97515.56;4971992;28;20043;-73
2022/08/06 11:41:33;;;;;;;3.30;0.80;;;;;;;34.69;20.94;97513.03;4971970;28;20414;-73
2022/08/06 11:43:58;;;;;;;2.95;0.80;;;;;;;34.37;22.29;97524.59;4973291;28;20050;-72
2022/08/06 11:46:25;;;;;;;2.35;0.73;;;;;;;35.52;19.62;97513.44;4972081;28;20089;-73